sensor_id;sensor_type;location;lat;lon;timestamp;temperature;humidity
54576;DHT22;40472;53.486;14.542;2022-09-21T00:03:39;9.50;99.90
54576;DHT22;40472;53.486;14.542;2022-09-21T00:06:11;9.50;99.90
54576;DHT22;40472;53.486;14.542;2022-09-21T00:08:37;9.60;99.90
54576;DHT22;40472;53.486;14.542;2022-09-21T00:11:03;9.70;99.90
54576;DHT22;40472;53.486;14.542;2022-09-21T00:13:31;9.70;99.90
54576;DHT22;40472;53.486;14.542;2022-09-21T00:15:59;9.80;99.90
54576;DHT22;40472;53.486;14.542;2022-09-21T00:18:25;9.90;99.90
54576;DHT22;40472;53.486;14.542;2022-09-21T00:20:51;10.00;99.90
54576;DHT22;40472;53.486;14.542;2022-09-21T00:23:18;9.90;99.90
54576;DHT22;40472;53.486;14.542;2022-09-21T00:25:43;10.00;99.90
54576;DHT22;40472;53.486;14.542;2022-09-21T00:28:09;9.90;99.90
54576;DHT22;40472;53.486;14.542;2022-09-21T00:30:36;10.00;99.90
54576;DHT22;40472;53.486;14.542;2022-09-21T00:33:02;9.90;99.90
54576;DHT22;40472;53.486;14.542;2022-09-21T00:35:28;9.90;99.90
54576;DHT22;40472;53.486;14.542;2022-09-21T00:37:53;9.90;99.90
54576;DHT22;40472;53.486;14.542;2022-09-21T00:40:19;9.90;99.90
54576;DHT22;40472;53.486;14.542;2022-09-21T00:42:45;9.90;99.90
54576;DHT22;40472;53.486;14.542;2022-09-21T00:45:12;9.90;99.90
54576;DHT22;40472;53.486;14.542;2022-09-21T00:47:48;9.90;99.90
54576;DHT22;40472;53.486;14.542;2022-09-21T00:50:18;9.90;99.90
54576;DHT22;40472;53.486;14.542;2022-09-21T00:52:51;9.90;99.90
54576;DHT22;40472;53.486;14.542;2022-09-21T00:55:40;9.80;99.90
54576;DHT22;40472;53.486;14.542;2022-09-21T00:58:10;9.90;99.90
54576;DHT22;40472;53.486;14.542;2022-09-21T01:00:37;10.00;99.90
54576;DHT22;40472;53.486;14.542;2022-09-21T01:03:05;10.10;99.90
54576;DHT22;40472;53.486;14.542;2022-09-21T01:05:31;10.10;99.90
54576;DHT22;40472;53.486;14.542;2022-09-21T01:08:00;10.10;99.90
54576;DHT22;40472;53.486;14.542;2022-09-21T01:10:37;10.20;99.90
54576;DHT22;40472;53.486;14.542;2022-09-21T01:13:43;10.10;99.90
54576;DHT22;40472;53.486;14.542;2022-09-21T01:16:14;10.10;99.90
54576;DHT22;40472;53.486;14.542;2022-09-21T01:18:55;10.00;99.90
54576;DHT22;40472;53.486;14.542;2022-09-21T01:21:30;10.10;99.90
54576;DHT22;40472;53.486;14.542;2022-09-21T01:27:43;10.00;99.90
54576;DHT22;40472;53.486;14.542;2022-09-21T01:30:22;9.90;99.90
54576;DHT22;40472;53.486;14.542;2022-09-21T01:35:23;9.80;99.90
54576;DHT22;40472;53.486;14.542;2022-09-21T01:37:59;9.70;99.90
54576;DHT22;40472;53.486;14.542;2022-09-21T01:40:41;9.70;99.90
54576;DHT22;40472;53.486;14.542;2022-09-21T01:43:10;9.70;99.90
54576;DHT22;40472;53.486;14.542;2022-09-21T01:45:40;9.60;99.90
54576;DHT22;40472;53.486;14.542;2022-09-21T01:48:08;9.60;99.90
54576;DHT22;40472;53.486;14.542;2022-09-21T01:50:39;9.60;99.90
54576;DHT22;40472;53.486;14.542;2022-09-21T01:53:19;9.70;99.90
54576;DHT22;40472;53.486;14.542;2022-09-21T01:55:50;9.70;99.90
54576;DHT22;40472;53.486;14.542;2022-09-21T02:00:54;9.70;99.90
54576;DHT22;40472;53.486;14.542;2022-09-21T02:03:37;9.70;99.90
54576;DHT22;40472;53.486;14.542;2022-09-21T02:06:05;9.70;99.90
54576;DHT22;40472;53.486;14.542;2022-09-21T02:08:31;9.70;99.90
54576;DHT22;40472;53.486;14.542;2022-09-21T02:11:03;9.70;99.90
54576;DHT22;40472;53.486;14.542;2022-09-21T02:13:37;9.70;99.90
54576;DHT22;40472;53.486;14.542;2022-09-21T02:20:59;9.60;99.90
54576;DHT22;40472;53.486;14.542;2022-09-21T02:23:35;9.60;99.90
54576;DHT22;40472;53.486;14.542;2022-09-21T02:26:10;9.60;99.90
54576;DHT22;40472;53.486;14.542;2022-09-21T02:29:09;9.60;99.90
54576;DHT22;40472;53.486;14.542;2022-09-21T02:31:54;9.60;99.90
54576;DHT22;40472;53.486;14.542;2022-09-21T02:34:26;9.50;99.90
54576;DHT22;40472;53.486;14.542;2022-09-21T02:37:03;9.50;99.90
54576;DHT22;40472;53.486;14.542;2022-09-21T02:39:44;9.40;99.90
54576;DHT22;40472;53.486;14.542;2022-09-21T02:42:36;9.40;99.90
54576;DHT22;40472;53.486;14.542;2022-09-21T02:45:19;9.30;99.90
54576;DHT22;40472;53.486;14.542;2022-09-21T02:47:57;9.20;99.90
54576;DHT22;40472;53.486;14.542;2022-09-21T02:50:44;9.20;99.90
54576;DHT22;40472;53.486;14.542;2022-09-21T02:53:12;9.20;99.90
54576;DHT22;40472;53.486;14.542;2022-09-21T02:55:41;9.20;99.90
54576;DHT22;40472;53.486;14.542;2022-09-21T02:58:11;9.20;99.90
54576;DHT22;40472;53.486;14.542;2022-09-21T03:00:39;9.30;99.90
54576;DHT22;40472;53.486;14.542;2022-09-21T03:03:21;9.30;99.90
54576;DHT22;40472;53.486;14.542;2022-09-21T03:05:49;9.30;99.90
54576;DHT22;40472;53.486;14.542;2022-09-21T03:08:17;9.30;99.90
54576;DHT22;40472;53.486;14.542;2022-09-21T03:10:43;9.30;99.90
54576;DHT22;40472;53.486;14.542;2022-09-21T03:13:11;9.30;99.90
54576;DHT22;40472;53.486;14.542;2022-09-21T03:15:38;9.30;99.90
54576;DHT22;40472;53.486;14.542;2022-09-21T03:18:06;9.40;99.90
54576;DHT22;40472;53.486;14.542;2022-09-21T03:20:35;9.40;99.90
54576;DHT22;40472;53.486;14.542;2022-09-21T03:23:03;9.30;99.90
54576;DHT22;40472;53.486;14.542;2022-09-21T03:25:30;9.40;99.90
54576;DHT22;40472;53.486;14.542;2022-09-21T03:27:56;9.30;99.90
54576;DHT22;40472;53.486;14.542;2022-09-21T03:30:24;9.40;99.90
54576;DHT22;40472;53.486;14.542;2022-09-21T03:32:51;9.30;99.90
54576;DHT22;40472;53.486;14.542;2022-09-21T03:35:18;9.40;99.90
54576;DHT22;40472;53.486;14.542;2022-09-21T03:37:44;9.30;99.90
54576;DHT22;40472;53.486;14.542;2022-09-21T03:40:13;9.30;99.90
54576;DHT22;40472;53.486;14.542;2022-09-21T03:42:39;9.30;99.90
54576;DHT22;40472;53.486;14.542;2022-09-21T03:45:06;9.30;99.90
54576;DHT22;40472;53.486;14.542;2022-09-21T03:47:36;9.20;99.90
54576;DHT22;40472;53.486;14.542;2022-09-21T03:50:02;9.20;99.90
54576;DHT22;40472;53.486;14.542;2022-09-21T03:52:27;9.20;99.90
54576;DHT22;40472;53.486;14.542;2022-09-21T03:54:53;9.20;99.90
54576;DHT22;40472;53.486;14.542;2022-09-21T03:57:20;9.20;99.90
54576;DHT22;40472;53.486;14.542;2022-09-21T03:59:46;9.20;99.90
54576;DHT22;40472;53.486;14.542;2022-09-21T04:02:11;9.20;99.90
54576;DHT22;40472;53.486;14.542;2022-09-21T04:04:37;9.20;99.90
54576;DHT22;40472;53.486;14.542;2022-09-21T04:07:03;9.10;99.90
54576;DHT22;40472;53.486;14.542;2022-09-21T04:09:29;9.20;99.90
54576;DHT22;40472;53.486;14.542;2022-09-21T04:11:55;9.20;99.90
54576;DHT22;40472;53.486;14.542;2022-09-21T04:14:21;9.20;99.90
54576;DHT22;40472;53.486;14.542;2022-09-21T04:16:48;9.20;99.90
54576;DHT22;40472;53.486;14.542;2022-09-21T04:19:15;9.20;99.90
54576;DHT22;40472;53.486;14.542;2022-09-21T04:21:41;9.20;99.90
54576;DHT22;40472;53.486;14.542;2022-09-21T04:24:06;9.20;99.90
54576;DHT22;40472;53.486;14.542;2022-09-21T04:26:33;9.10;99.90
54576;DHT22;40472;53.486;14.542;2022-09-21T04:29:00;9.10;99.90
54576;DHT22;40472;53.486;14.542;2022-09-21T04:31:26;9.10;99.90
54576;DHT22;40472;53.486;14.542;2022-09-21T04:33:54;9.10;99.90
54576;DHT22;40472;53.486;14.542;2022-09-21T04:36:22;9.10;99.90
54576;DHT22;40472;53.486;14.542;2022-09-21T04:38:49;9.10;99.90
54576;DHT22;40472;53.486;14.542;2022-09-21T04:41:15;9.10;99.90
54576;DHT22;40472;53.486;14.542;2022-09-21T04:43:45;9.10;99.90
54576;DHT22;40472;53.486;14.542;2022-09-21T04:46:14;9.00;99.90
54576;DHT22;40472;53.486;14.542;2022-09-21T04:48:40;9.00;99.90
54576;DHT22;40472;53.486;14.542;2022-09-21T04:51:07;9.00;99.90
54576;DHT22;40472;53.486;14.542;2022-09-21T04:53:34;9.00;99.90
54576;DHT22;40472;53.486;14.542;2022-09-21T04:56:02;8.90;99.90
54576;DHT22;40472;53.486;14.542;2022-09-21T04:58:28;8.90;99.90
54576;DHT22;40472;53.486;14.542;2022-09-21T05:00:54;8.80;99.90
54576;DHT22;40472;53.486;14.542;2022-09-21T05:03:22;8.80;99.90
54576;DHT22;40472;53.486;14.542;2022-09-21T05:05:50;8.80;99.90
54576;DHT22;40472;53.486;14.542;2022-09-21T05:08:17;8.70;99.90
54576;DHT22;40472;53.486;14.542;2022-09-21T05:11:03;8.60;99.90
54576;DHT22;40472;53.486;14.542;2022-09-21T05:13:29;8.70;99.90
54576;DHT22;40472;53.486;14.542;2022-09-21T05:15:55;8.70;99.90
54576;DHT22;40472;53.486;14.542;2022-09-21T05:18:21;8.70;99.90
54576;DHT22;40472;53.486;14.542;2022-09-21T05:20:53;8.70;99.90
54576;DHT22;40472;53.486;14.542;2022-09-21T05:23:19;8.60;99.90
54576;DHT22;40472;53.486;14.542;2022-09-21T05:25:45;8.60;99.90
54576;DHT22;40472;53.486;14.542;2022-09-21T05:28:11;8.60;99.90
54576;DHT22;40472;53.486;14.542;2022-09-21T05:30:37;8.70;99.90
54576;DHT22;40472;53.486;14.542;2022-09-21T05:33:03;8.70;99.90
54576;DHT22;40472;53.486;14.542;2022-09-21T05:35:40;8.70;99.90
54576;DHT22;40472;53.486;14.542;2022-09-21T05:38:17;8.80;99.90
54576;DHT22;40472;53.486;14.542;2022-09-21T05:40:43;8.80;99.90
54576;DHT22;40472;53.486;14.542;2022-09-21T05:43:10;8.80;99.90
54576;DHT22;40472;53.486;14.542;2022-09-21T05:45:40;8.80;99.90
54576;DHT22;40472;53.486;14.542;2022-09-21T05:48:46;8.80;99.90
54576;DHT22;40472;53.486;14.542;2022-09-21T05:54:18;8.90;99.90
54576;DHT22;40472;53.486;14.542;2022-09-21T05:56:56;8.90;99.90
54576;DHT22;40472;53.486;14.542;2022-09-21T06:04:40;9.20;99.90
54576;DHT22;40472;53.486;14.542;2022-09-21T06:07:06;9.30;99.90
54576;DHT22;40472;53.486;14.542;2022-09-21T06:09:31;9.40;99.90
54576;DHT22;40472;53.486;14.542;2022-09-21T06:11:57;9.40;99.90
54576;DHT22;40472;53.486;14.542;2022-09-21T06:14:24;9.40;99.90
54576;DHT22;40472;53.486;14.542;2022-09-21T06:16:51;9.50;99.90
54576;DHT22;40472;53.486;14.542;2022-09-21T06:19:17;9.50;99.90
54576;DHT22;40472;53.486;14.542;2022-09-21T06:21:43;9.60;99.90
54576;DHT22;40472;53.486;14.542;2022-09-21T06:24:09;9.70;99.90
54576;DHT22;40472;53.486;14.542;2022-09-21T06:26:38;9.70;99.90
54576;DHT22;40472;53.486;14.542;2022-09-21T06:29:04;9.90;99.90
54576;DHT22;40472;53.486;14.542;2022-09-21T06:31:29;10.20;99.90
54576;DHT22;40472;53.486;14.542;2022-09-21T06:33:55;10.40;99.90
54576;DHT22;40472;53.486;14.542;2022-09-21T06:36:21;10.60;99.90
54576;DHT22;40472;53.486;14.542;2022-09-21T06:38:47;10.70;99.90
54576;DHT22;40472;53.486;14.542;2022-09-21T06:41:13;10.80;99.90
54576;DHT22;40472;53.486;14.542;2022-09-21T06:43:39;10.80;99.90
54576;DHT22;40472;53.486;14.542;2022-09-21T06:46:05;10.80;99.90
54576;DHT22;40472;53.486;14.542;2022-09-21T06:48:32;10.90;99.90
54576;DHT22;40472;53.486;14.542;2022-09-21T06:50:59;11.10;99.90
54576;DHT22;40472;53.486;14.542;2022-09-21T06:53:26;11.20;99.90
54576;DHT22;40472;53.486;14.542;2022-09-21T06:55:52;11.30;99.90
54576;DHT22;40472;53.486;14.542;2022-09-21T06:58:18;11.30;99.90
54576;DHT22;40472;53.486;14.542;2022-09-21T07:00:44;11.40;99.90
54576;DHT22;40472;53.486;14.542;2022-09-21T07:03:11;11.40;99.90
54576;DHT22;40472;53.486;14.542;2022-09-21T07:05:42;11.40;99.90
54576;DHT22;40472;53.486;14.542;2022-09-21T07:08:08;11.50;99.90
54576;DHT22;40472;53.486;14.542;2022-09-21T07:10:34;11.40;99.90
54576;DHT22;40472;53.486;14.542;2022-09-21T07:13:04;11.30;99.90
54576;DHT22;40472;53.486;14.542;2022-09-21T07:15:30;11.20;99.90
54576;DHT22;40472;53.486;14.542;2022-09-21T07:17:56;11.10;99.90
54576;DHT22;40472;53.486;14.542;2022-09-21T07:20:22;11.00;99.90
54576;DHT22;40472;53.486;14.542;2022-09-21T07:22:48;10.80;99.90
54576;DHT22;40472;53.486;14.542;2022-09-21T07:25:14;10.80;99.90
54576;DHT22;40472;53.486;14.542;2022-09-21T07:27:40;10.80;99.90
54576;DHT22;40472;53.486;14.542;2022-09-21T07:30:06;10.80;99.90
54576;DHT22;40472;53.486;14.542;2022-09-21T07:32:32;11.00;99.90
54576;DHT22;40472;53.486;14.542;2022-09-21T07:34:58;11.20;99.90
54576;DHT22;40472;53.486;14.542;2022-09-21T07:37:25;11.50;99.90
54576;DHT22;40472;53.486;14.542;2022-09-21T07:39:52;11.60;99.90
54576;DHT22;40472;53.486;14.542;2022-09-21T07:42:18;11.80;99.90
54576;DHT22;40472;53.486;14.542;2022-09-21T07:44:46;12.00;99.90
54576;DHT22;40472;53.486;14.542;2022-09-21T07:47:12;12.00;99.90
54576;DHT22;40472;53.486;14.542;2022-09-21T07:49:38;12.10;99.90
54576;DHT22;40472;53.486;14.542;2022-09-21T07:52:04;12.20;99.90
54576;DHT22;40472;53.486;14.542;2022-09-21T07:54:31;12.20;99.90
54576;DHT22;40472;53.486;14.542;2022-09-21T07:57:00;12.30;99.90
54576;DHT22;40472;53.486;14.542;2022-09-21T07:59:46;12.30;99.90
54576;DHT22;40472;53.486;14.542;2022-09-21T08:02:12;12.40;99.90
54576;DHT22;40472;53.486;14.542;2022-09-21T08:04:38;12.40;99.90
54576;DHT22;40472;53.486;14.542;2022-09-21T08:07:04;12.40;99.90
54576;DHT22;40472;53.486;14.542;2022-09-21T08:09:30;12.30;99.90
54576;DHT22;40472;53.486;14.542;2022-09-21T08:11:57;12.30;99.90
54576;DHT22;40472;53.486;14.542;2022-09-21T08:14:26;12.40;99.90
54576;DHT22;40472;53.486;14.542;2022-09-21T08:16:53;12.50;99.90
54576;DHT22;40472;53.486;14.542;2022-09-21T08:19:19;12.60;99.90
54576;DHT22;40472;53.486;14.542;2022-09-21T08:21:47;12.70;99.90
54576;DHT22;40472;53.486;14.542;2022-09-21T08:24:13;12.70;99.90
54576;DHT22;40472;53.486;14.542;2022-09-21T08:26:39;12.70;99.90
54576;DHT22;40472;53.486;14.542;2022-09-21T08:29:05;12.70;99.90
54576;DHT22;40472;53.486;14.542;2022-09-21T08:31:31;12.70;99.90
54576;DHT22;40472;53.486;14.542;2022-09-21T08:33:57;12.70;99.90
54576;DHT22;40472;53.486;14.542;2022-09-21T08:36:23;12.80;99.90
54576;DHT22;40472;53.486;14.542;2022-09-21T08:38:50;12.80;99.90
54576;DHT22;40472;53.486;14.542;2022-09-21T08:41:46;13.00;99.90
54576;DHT22;40472;53.486;14.542;2022-09-21T08:44:38;12.90;99.90
54576;DHT22;40472;53.486;14.542;2022-09-21T08:47:16;12.90;99.90
54576;DHT22;40472;53.486;14.542;2022-09-21T08:49:48;13.00;99.90
54576;DHT22;40472;53.486;14.542;2022-09-21T08:52:18;13.20;99.90
54576;DHT22;40472;53.486;14.542;2022-09-21T08:55:01;13.20;99.90
54576;DHT22;40472;53.486;14.542;2022-09-21T08:57:31;13.30;99.90
54576;DHT22;40472;53.486;14.542;2022-09-21T08:59:58;13.30;99.90
54576;DHT22;40472;53.486;14.542;2022-09-21T09:14:19;13.90;99.90
54576;DHT22;40472;53.486;14.542;2022-09-21T09:19:44;14.40;99.90
54576;DHT22;40472;53.486;14.542;2022-09-21T09:22:16;14.50;99.90
54576;DHT22;40472;53.486;14.542;2022-09-21T09:24:51;14.50;99.90
54576;DHT22;40472;53.486;14.542;2022-09-21T09:27:39;14.50;99.90
54576;DHT22;40472;53.486;14.542;2022-09-21T09:30:17;14.50;99.90
54576;DHT22;40472;53.486;14.542;2022-09-21T09:33:15;14.50;99.90
54576;DHT22;40472;53.486;14.542;2022-09-21T09:51:48;14.20;99.90
54576;DHT22;40472;53.486;14.542;2022-09-21T09:54:15;14.30;99.90
54576;DHT22;40472;53.486;14.542;2022-09-21T09:56:42;14.50;99.90
54576;DHT22;40472;53.486;14.542;2022-09-21T09:59:33;14.70;99.90
54576;DHT22;40472;53.486;14.542;2022-09-21T10:02:19;14.70;99.90
54576;DHT22;40472;53.486;14.542;2022-09-21T10:04:58;14.60;99.90
54576;DHT22;40472;53.486;14.542;2022-09-21T10:07:39;14.70;99.90
54576;DHT22;40472;53.486;14.542;2022-09-21T10:10:37;14.60;99.90
54576;DHT22;40472;53.486;14.542;2022-09-21T10:13:07;14.50;99.90
54576;DHT22;40472;53.486;14.542;2022-09-21T10:15:43;14.50;99.90
54576;DHT22;40472;53.486;14.542;2022-09-21T10:18:51;14.50;99.90
54576;DHT22;40472;53.486;14.542;2022-09-21T10:24:00;14.50;99.90
54576;DHT22;40472;53.486;14.542;2022-09-21T10:26:39;14.50;99.90
54576;DHT22;40472;53.486;14.542;2022-09-21T10:32:18;14.50;99.90
54576;DHT22;40472;53.486;14.542;2022-09-21T10:35:01;14.50;99.90
54576;DHT22;40472;53.486;14.542;2022-09-21T10:37:42;14.50;99.90
54576;DHT22;40472;53.486;14.542;2022-09-21T10:42:48;14.70;99.90
54576;DHT22;40472;53.486;14.542;2022-09-21T10:45:23;14.70;99.90
54576;DHT22;40472;53.486;14.542;2022-09-21T10:47:52;14.70;99.90
54576;DHT22;40472;53.486;14.542;2022-09-21T10:53:10;14.80;99.90
54576;DHT22;40472;53.486;14.542;2022-09-21T10:58:11;14.70;99.90
54576;DHT22;40472;53.486;14.542;2022-09-21T11:00:44;14.80;99.90
54576;DHT22;40472;53.486;14.542;2022-09-21T11:03:40;14.80;99.90
54576;DHT22;40472;53.486;14.542;2022-09-21T11:06:29;14.80;99.90
54576;DHT22;40472;53.486;14.542;2022-09-21T11:09:00;14.80;99.90
54576;DHT22;40472;53.486;14.542;2022-09-21T11:17:34;14.90;99.90
54576;DHT22;40472;53.486;14.542;2022-09-21T11:22:39;15.00;99.90
54576;DHT22;40472;53.486;14.542;2022-09-21T11:27:43;15.10;99.90
54576;DHT22;40472;53.486;14.542;2022-09-21T11:30:15;15.10;99.90
54576;DHT22;40472;53.486;14.542;2022-09-21T11:33:09;15.10;99.90
54576;DHT22;40472;53.486;14.542;2022-09-21T11:36:09;15.20;99.90
54576;DHT22;40472;53.486;14.542;2022-09-21T11:38:59;15.20;99.90
54576;DHT22;40472;53.486;14.542;2022-09-21T11:44:18;14.90;99.90
54576;DHT22;40472;53.486;14.542;2022-09-21T11:52:26;15.00;99.90
54576;DHT22;40472;53.486;14.542;2022-09-21T12:00:20;15.30;99.90
54576;DHT22;40472;53.486;14.542;2022-09-21T12:06:15;15.40;99.90
54576;DHT22;40472;53.486;14.542;2022-09-21T12:12:13;15.10;99.90
54576;DHT22;40472;53.486;14.542;2022-09-21T12:14:59;15.00;99.90
54576;DHT22;40472;53.486;14.542;2022-09-21T12:20:24;15.10;99.90
54576;DHT22;40472;53.486;14.542;2022-09-21T12:23:01;15.10;99.90
54576;DHT22;40472;53.486;14.542;2022-09-21T12:25:36;15.30;99.90
54576;DHT22;40472;53.486;14.542;2022-09-21T12:28:40;15.40;99.90
54576;DHT22;40472;53.486;14.542;2022-09-21T12:31:23;15.40;99.90
54576;DHT22;40472;53.486;14.542;2022-09-21T12:33:52;15.40;99.90
54576;DHT22;40472;53.486;14.542;2022-09-21T12:36:41;15.50;99.90
54576;DHT22;40472;53.486;14.542;2022-09-21T12:41:57;14.90;99.90
54576;DHT22;40472;53.486;14.542;2022-09-21T12:44:35;14.80;99.90
54576;DHT22;40472;53.486;14.542;2022-09-21T12:50:10;15.00;99.90
54576;DHT22;40472;53.486;14.542;2022-09-21T12:52:39;14.90;99.90
54576;DHT22;40472;53.486;14.542;2022-09-21T12:58:03;15.00;99.90
54576;DHT22;40472;53.486;14.542;2022-09-21T13:01:20;15.10;99.90
54576;DHT22;40472;53.486;14.542;2022-09-21T13:06:48;15.30;99.90
54576;DHT22;40472;53.486;14.542;2022-09-21T13:09:19;15.10;99.90
54576;DHT22;40472;53.486;14.542;2022-09-21T13:11:54;14.90;99.90
54576;DHT22;40472;53.486;14.542;2022-09-21T13:14:22;14.80;99.90
54576;DHT22;40472;53.486;14.542;2022-09-21T13:16:54;14.90;99.90
54576;DHT22;40472;53.486;14.542;2022-09-21T13:19:24;15.00;99.90
54576;DHT22;40472;53.486;14.542;2022-09-21T13:24:44;14.90;99.90
54576;DHT22;40472;53.486;14.542;2022-09-21T13:27:11;14.80;99.90
54576;DHT22;40472;53.486;14.542;2022-09-21T13:29:38;14.80;99.90
54576;DHT22;40472;53.486;14.542;2022-09-21T13:34:42;15.00;99.90
54576;DHT22;40472;53.486;14.542;2022-09-21T13:37:13;15.00;99.90
54576;DHT22;40472;53.486;14.542;2022-09-21T13:47:54;15.10;99.90
54576;DHT22;40472;53.486;14.542;2022-09-21T13:53:20;15.10;99.90
54576;DHT22;40472;53.486;14.542;2022-09-21T13:55:59;15.10;99.90
54576;DHT22;40472;53.486;14.542;2022-09-21T13:58:34;15.00;99.90
54576;DHT22;40472;53.486;14.542;2022-09-21T14:01:22;15.10;99.90
54576;DHT22;40472;53.486;14.542;2022-09-21T14:03:59;15.10;99.90
54576;DHT22;40472;53.486;14.542;2022-09-21T14:06:31;15.10;99.90
54576;DHT22;40472;53.486;14.542;2022-09-21T14:09:02;15.00;99.90
54576;DHT22;40472;53.486;14.542;2022-09-21T14:11:35;14.90;99.90
54576;DHT22;40472;53.486;14.542;2022-09-21T14:24:48;14.80;99.90
54576;DHT22;40472;53.486;14.542;2022-09-21T14:27:42;14.80;99.90
54576;DHT22;40472;53.486;14.542;2022-09-21T14:30:25;14.80;99.90
54576;DHT22;40472;53.486;14.542;2022-09-21T14:36:07;14.80;99.90
54576;DHT22;40472;53.486;14.542;2022-09-21T14:38:50;14.60;99.90
54576;DHT22;40472;53.486;14.542;2022-09-21T14:41:22;14.60;99.90
54576;DHT22;40472;53.486;14.542;2022-09-21T14:43:55;14.60;99.90
54576;DHT22;40472;53.486;14.542;2022-09-21T14:50:07;14.60;99.90
54576;DHT22;40472;53.486;14.542;2022-09-21T14:58:09;14.40;99.90
54576;DHT22;40472;53.486;14.542;2022-09-21T15:00:44;14.40;99.90
54576;DHT22;40472;53.486;14.542;2022-09-21T15:06:11;14.00;99.90
54576;DHT22;40472;53.486;14.542;2022-09-21T15:10:20;14.00;99.90
54576;DHT22;40472;53.486;14.542;2022-09-21T15:13:07;14.20;99.90
54576;DHT22;40472;53.486;14.542;2022-09-21T15:18:20;14.20;99.90
54576;DHT22;40472;53.486;14.542;2022-09-21T15:20:57;14.20;99.90
54576;DHT22;40472;53.486;14.542;2022-09-21T15:23:27;14.20;99.90
54576;DHT22;40472;53.486;14.542;2022-09-21T15:26:03;14.20;99.90
54576;DHT22;40472;53.486;14.542;2022-09-21T15:28:36;14.20;99.90
54576;DHT22;40472;53.486;14.542;2022-09-21T15:31:03;14.10;99.90
54576;DHT22;40472;53.486;14.542;2022-09-21T15:33:36;14.10;99.90
54576;DHT22;40472;53.486;14.542;2022-09-21T15:36:04;14.10;99.90
54576;DHT22;40472;53.486;14.542;2022-09-21T15:38:33;13.90;99.90
54576;DHT22;40472;53.486;14.542;2022-09-21T15:41:01;13.90;99.90
54576;DHT22;40472;53.486;14.542;2022-09-21T15:43:27;13.90;99.90
54576;DHT22;40472;53.486;14.542;2022-09-21T15:46:04;13.90;99.90
54576;DHT22;40472;53.486;14.542;2022-09-21T15:48:34;13.90;99.90
54576;DHT22;40472;53.486;14.542;2022-09-21T15:53:37;14.00;99.90
54576;DHT22;40472;53.486;14.542;2022-09-21T15:56:06;14.00;99.90
54576;DHT22;40472;53.486;14.542;2022-09-21T15:58:37;13.80;99.90
54576;DHT22;40472;53.486;14.542;2022-09-21T16:01:16;13.60;99.90
54576;DHT22;40472;53.486;14.542;2022-09-21T16:03:46;13.50;99.90
54576;DHT22;40472;53.486;14.542;2022-09-21T16:06:39;13.40;99.90
54576;DHT22;40472;53.486;14.542;2022-09-21T16:11:55;13.10;99.90
54576;DHT22;40472;53.486;14.542;2022-09-21T16:14:21;13.00;99.90
54576;DHT22;40472;53.486;14.542;2022-09-21T16:22:30;12.90;99.90
54576;DHT22;40472;53.486;14.542;2022-09-21T16:25:00;12.80;99.90
54576;DHT22;40472;53.486;14.542;2022-09-21T16:27:30;12.70;99.90
54576;DHT22;40472;53.486;14.542;2022-09-21T16:29:57;12.70;99.90
54576;DHT22;40472;53.486;14.542;2022-09-21T16:32:30;12.60;99.90
54576;DHT22;40472;53.486;14.542;2022-09-21T16:35:22;12.50;99.90
54576;DHT22;40472;53.486;14.542;2022-09-21T16:37:52;12.40;99.90
54576;DHT22;40472;53.486;14.542;2022-09-21T16:40:22;12.30;99.90
54576;DHT22;40472;53.486;14.542;2022-09-21T16:42:48;12.30;99.90
54576;DHT22;40472;53.486;14.542;2022-09-21T16:45:28;12.10;99.90
54576;DHT22;40472;53.486;14.542;2022-09-21T16:47:57;12.10;99.90
54576;DHT22;40472;53.486;14.542;2022-09-21T16:50:24;12.00;99.90
54576;DHT22;40472;53.486;14.542;2022-09-21T16:52:50;12.00;99.90
54576;DHT22;40472;53.486;14.542;2022-09-21T16:55:18;11.90;99.90
54576;DHT22;40472;53.486;14.542;2022-09-21T16:57:44;11.80;99.90
54576;DHT22;40472;53.486;14.542;2022-09-21T17:00:15;11.70;99.90
54576;DHT22;40472;53.486;14.542;2022-09-21T17:02:45;11.60;99.90
54576;DHT22;40472;53.486;14.542;2022-09-21T17:05:11;11.30;99.90
54576;DHT22;40472;53.486;14.542;2022-09-21T17:07:58;11.30;99.90
54576;DHT22;40472;53.486;14.542;2022-09-21T17:10:29;11.30;99.90
54576;DHT22;40472;53.486;14.542;2022-09-21T17:12:56;11.20;99.90
54576;DHT22;40472;53.486;14.542;2022-09-21T17:15:23;11.20;99.90
54576;DHT22;40472;53.486;14.542;2022-09-21T17:17:50;11.10;99.90
54576;DHT22;40472;53.486;14.542;2022-09-21T17:20:33;11.00;99.90
54576;DHT22;40472;53.486;14.542;2022-09-21T17:23:00;10.90;99.90
54576;DHT22;40472;53.486;14.542;2022-09-21T17:25:28;10.80;99.90
54576;DHT22;40472;53.486;14.542;2022-09-21T17:27:55;10.70;99.90
54576;DHT22;40472;53.486;14.542;2022-09-21T17:30:25;10.60;99.90
54576;DHT22;40472;53.486;14.542;2022-09-21T17:32:52;10.40;99.90
54576;DHT22;40472;53.486;14.542;2022-09-21T17:35:30;10.40;99.90
54576;DHT22;40472;53.486;14.542;2022-09-21T17:37:57;10.20;99.90
54576;DHT22;40472;53.486;14.542;2022-09-21T17:40:24;10.10;99.90
54576;DHT22;40472;53.486;14.542;2022-09-21T17:42:50;10.00;99.90
54576;DHT22;40472;53.486;14.542;2022-09-21T17:48:19;9.90;99.90
54576;DHT22;40472;53.486;14.542;2022-09-21T17:50:45;9.90;99.90
54576;DHT22;40472;53.486;14.542;2022-09-21T17:53:12;9.90;99.90
54576;DHT22;40472;53.486;14.542;2022-09-21T17:55:57;9.90;99.90
54576;DHT22;40472;53.486;14.542;2022-09-21T18:03:38;9.80;99.90
54576;DHT22;40472;53.486;14.542;2022-09-21T18:06:06;9.90;99.90
54576;DHT22;40472;53.486;14.542;2022-09-21T18:08:34;9.90;99.90
54576;DHT22;40472;53.486;14.542;2022-09-21T18:14:39;10.00;99.90
54576;DHT22;40472;53.486;14.542;2022-09-21T18:17:30;10.10;99.90
54576;DHT22;40472;53.486;14.542;2022-09-21T18:23:21;10.10;99.90
54576;DHT22;40472;53.486;14.542;2022-09-21T18:26:03;10.10;99.90
54576;DHT22;40472;53.486;14.542;2022-09-21T18:28:41;10.10;99.90
54576;DHT22;40472;53.486;14.542;2022-09-21T18:39:46;10.00;99.90
54576;DHT22;40472;53.486;14.542;2022-09-21T18:45:43;10.10;99.90
54576;DHT22;40472;53.486;14.542;2022-09-21T18:51:09;10.30;99.90
54576;DHT22;40472;53.486;14.542;2022-09-21T18:53:48;10.30;99.90
54576;DHT22;40472;53.486;14.542;2022-09-21T18:56:15;10.20;99.90
54576;DHT22;40472;53.486;14.542;2022-09-21T18:58:41;10.20;99.90
54576;DHT22;40472;53.486;14.542;2022-09-21T19:01:12;10.30;99.90
54576;DHT22;40472;53.486;14.542;2022-09-21T19:03:40;10.20;99.90
54576;DHT22;40472;53.486;14.542;2022-09-21T19:14:21;10.10;99.90
54576;DHT22;40472;53.486;14.542;2022-09-21T19:25:47;9.80;99.90
54576;DHT22;40472;53.486;14.542;2022-09-21T19:28:28;9.80;99.90
54576;DHT22;40472;53.486;14.542;2022-09-21T19:30:59;9.80;99.90